createdAt,value
2019-01-08T00:02:34.091Z,0.50
2019-01-08T00:06:37.997Z,0.60
2019-01-08T00:10:41.907Z,0.70
2019-01-08T00:14:45.854Z,0.50
2019-01-08T00:18:50.959Z,0.50
2019-01-08T00:22:54.852Z,0.53
2019-01-08T00:26:58.774Z,0.60
2019-01-08T00:31:02.639Z,0.83
2019-01-08T00:35:07.095Z,0.50
2019-01-08T00:39:11.366Z,1.63
2019-01-08T00:43:15.175Z,0.97
2019-01-08T00:47:18.981Z,0.50
2019-01-08T00:51:22.865Z,0.73
2019-01-08T00:55:26.789Z,0.50
2019-01-08T00:59:30.707Z,1.13
2019-01-08T01:03:34.509Z,0.50
2019-01-08T01:07:38.369Z,0.50
2019-01-08T01:11:42.321Z,0.50
2019-01-08T01:15:46.333Z,0.47
2019-01-08T01:19:50.133Z,0.50
2019-01-08T01:23:54.079Z,0.47
2019-01-08T01:27:57.989Z,0.50
2019-01-08T01:32:01.799Z,0.53
2019-01-08T01:36:05.612Z,0.77
2019-01-08T01:40:09.690Z,1.00
2019-01-08T01:44:13.493Z,1.10
2019-01-08T01:48:17.391Z,2.90
2019-01-08T01:52:21.230Z,1.93
2019-01-08T01:56:25.042Z,2.10
2019-01-08T02:00:29.136Z,3.30
2019-01-08T02:04:33.006Z,3.97
2019-01-08T02:08:37.014Z,5.37
2019-01-08T02:12:41.129Z,3.10
2019-01-08T02:16:47.682Z,2.93
2019-01-08T02:20:51.530Z,3.40
2019-01-08T02:24:56.855Z,2.03
2019-01-08T02:29:00.787Z,1.60
2019-01-08T02:33:04.768Z,2.80
2019-01-08T02:37:08.698Z,5.13
2019-01-08T02:41:12.732Z,1.47
2019-01-08T02:45:16.584Z,3.30
2019-01-08T02:49:20.437Z,1.07
2019-01-08T02:53:24.391Z,3.57
2019-01-08T02:57:28.187Z,3.03
2019-01-08T03:01:31.983Z,1.63
2019-01-08T03:05:35.860Z,3.97
2019-01-08T03:09:39.747Z,3.33
2019-01-08T03:13:44.555Z,2.60
2019-01-08T03:17:48.496Z,2.87
2019-01-08T03:21:52.355Z,3.17
2019-01-08T03:25:56.298Z,3.63
2019-01-08T03:30:00.207Z,3.63
2019-01-08T03:34:04.106Z,5.23
2019-01-08T03:38:07.977Z,3.17
2019-01-08T03:42:11.852Z,4.13
2019-01-08T03:46:15.668Z,3.97
2019-01-08T03:50:19.547Z,5.93
2019-01-08T03:54:23.501Z,6.10
2019-01-08T03:58:28.431Z,9.23
2019-01-08T04:02:32.222Z,3.07
2019-01-08T04:06:36.110Z,3.03
2019-01-08T04:10:39.915Z,6.53
2019-01-08T04:14:43.965Z,5.97
2019-01-08T04:18:48.028Z,1.93
2019-01-08T04:22:51.883Z,4.53
2019-01-08T04:26:55.683Z,4.30
2019-01-08T04:30:59.518Z,4.70
2019-01-08T04:35:03.551Z,4.93
2019-01-08T04:39:07.348Z,3.83
2019-01-08T04:43:11.324Z,6.00
2019-01-08T04:47:15.225Z,4.97
2019-01-08T04:51:19.215Z,6.70
2019-01-08T04:55:23.106Z,3.97
2019-01-08T04:59:27.004Z,3.40
2019-01-08T05:03:30.785Z,4.40
2019-01-08T05:07:34.594Z,2.73
2019-01-08T05:11:38.412Z,2.33
2019-01-08T05:15:42.405Z,6.10
2019-01-08T05:19:46.305Z,6.17
2019-01-08T05:23:50.283Z,6.63
2019-01-08T05:27:54.072Z,4.30
2019-01-08T05:31:58.141Z,8.17
2019-01-08T05:36:01.967Z,4.60
2019-01-08T05:40:06.666Z,3.83
2019-01-08T05:44:10.583Z,4.57
2019-01-08T05:48:14.521Z,3.93
2019-01-08T05:52:18.456Z,4.10
2019-01-08T05:56:22.274Z,3.13
2019-01-08T06:00:26.267Z,3.93
2019-01-08T06:04:30.124Z,6.07
2019-01-08T06:08:33.977Z,3.53
2019-01-08T06:12:37.836Z,7.87
2019-01-08T06:16:41.640Z,2.97
2019-01-08T06:20:45.458Z,5.13
2019-01-08T06:24:49.249Z,3.77
2019-01-08T06:28:54.192Z,7.53
2019-01-08T06:32:58.100Z,5.03
2019-01-08T06:37:01.951Z,2.43
2019-01-08T06:41:05.788Z,6.03
2019-01-08T06:45:09.676Z,2.87
2019-01-08T06:49:13.552Z,8.47
2019-01-08T06:53:17.365Z,6.03
2019-01-08T06:57:21.264Z,4.43
2019-01-08T07:01:25.262Z,4.00
2019-01-08T07:05:29.187Z,7.47
2019-01-08T07:09:33.137Z,7.33
2019-01-08T07:13:36.955Z,4.33
2019-01-08T07:17:40.755Z,4.27
2019-01-08T07:21:44.805Z,7.87
2019-01-08T07:25:48.648Z,6.13
2019-01-08T07:29:52.655Z,6.47
2019-01-08T07:33:56.644Z,5.47
2019-01-08T07:38:00.607Z,6.83
2019-01-08T07:42:04.432Z,5.67
2019-01-08T07:46:08.340Z,5.77
2019-01-08T07:50:12.172Z,7.97
2019-01-08T07:54:16.077Z,4.67
2019-01-08T07:58:19.947Z,2.33
2019-01-08T08:02:23.921Z,3.23
2019-01-08T08:06:27.747Z,4.20
2019-01-08T08:10:31.660Z,4.60
2019-01-08T08:14:35.560Z,5.33
2019-01-08T08:18:39.329Z,7.27
2019-01-08T08:22:43.184Z,5.90
2019-01-08T08:26:47.296Z,4.30
2019-01-08T08:30:58.535Z,9.40
2019-01-08T08:34:56.667Z,7.37
2019-01-08T08:39:00.823Z,3.47
2019-01-08T08:43:06.241Z,7.30
2019-01-08T08:47:10.174Z,9.87
2019-01-08T08:51:14.009Z,2.53
2019-01-08T08:55:17.796Z,8.13
2019-01-08T08:59:21.843Z,3.90
2019-01-08T09:03:25.671Z,5.17
2019-01-08T09:07:29.595Z,5.07
2019-01-08T09:11:33.720Z,4.83
2019-01-08T09:15:37.910Z,3.00
2019-01-08T09:19:41.941Z,4.60
2019-01-08T09:23:45.986Z,14.17
2019-01-08T09:27:49.991Z,6.93
2019-01-08T09:31:54.390Z,6.17
2019-01-08T09:35:58.383Z,5.47
2019-01-08T09:40:02.172Z,14.17
2019-01-08T09:44:06.026Z,10.67
2019-01-08T09:48:09.903Z,4.83
2019-01-08T09:52:13.809Z,6.13
2019-01-08T09:56:17.752Z,7.73
2019-01-08T10:00:21.642Z,4.87
2019-01-08T10:04:25.503Z,7.27
2019-01-08T10:08:29.423Z,6.73
2019-01-08T10:12:33.335Z,8.30
2019-01-08T10:16:37.176Z,5.43
2019-01-08T10:20:45.334Z,4.50
2019-01-08T10:24:50.444Z,2.87
2019-01-08T10:28:54.347Z,7.03
2019-01-08T10:32:58.179Z,10.27
2019-01-08T10:37:01.978Z,5.77
2019-01-08T10:41:05.897Z,3.87
2019-01-08T10:45:09.798Z,6.03
2019-01-08T10:49:13.616Z,4.53
2019-01-08T10:53:17.452Z,6.53
2019-01-08T10:57:21.438Z,13.90
2019-01-08T11:01:25.459Z,8.90
2019-01-08T11:05:29.503Z,3.77
2019-01-08T11:09:33.505Z,3.10
2019-01-08T11:13:37.307Z,5.93
2019-01-08T11:17:41.314Z,4.00
2019-01-08T11:21:45.116Z,6.57
2019-01-08T11:25:48.976Z,4.03
2019-01-08T11:29:53.384Z,3.37
2019-01-08T11:33:57.170Z,4.27
2019-01-08T11:38:01.003Z,6.53
2019-01-08T11:42:06.145Z,4.37
2019-01-08T11:46:10.110Z,3.50
2019-01-08T11:50:13.917Z,4.13
2019-01-08T11:54:17.985Z,3.47
2019-01-08T11:58:22.972Z,3.10
2019-01-08T12:02:26.924Z,7.67
2019-01-08T12:06:30.745Z,4.97
2019-01-08T12:10:34.608Z,7.03
2019-01-08T12:14:38.476Z,4.40
2019-01-08T12:18:42.790Z,8.43
2019-01-08T12:22:46.792Z,6.73
2019-01-08T12:26:50.677Z,2.93
2019-01-08T12:30:54.968Z,5.90
2019-01-08T12:35:02.677Z,6.00
2019-01-08T12:39:06.607Z,4.93
2019-01-08T12:43:10.791Z,4.03
2019-01-08T12:47:14.778Z,2.23
2019-01-08T12:51:18.728Z,2.30
2019-01-08T12:55:22.572Z,6.57
2019-01-08T12:59:26.398Z,2.63
2019-01-08T13:03:30.452Z,6.53
2019-01-08T13:07:34.360Z,4.63
2019-01-08T13:11:38.413Z,3.10
2019-01-08T13:15:43.428Z,5.90
2019-01-08T13:19:47.342Z,5.73
2019-01-08T13:23:51.138Z,4.10
2019-01-08T13:27:59.098Z,4.30
2019-01-08T13:32:03.131Z,8.77
2019-01-08T13:36:07.424Z,5.97
2019-01-08T13:40:11.452Z,19.83
2019-01-08T13:44:15.414Z,11.57
2019-01-08T13:48:19.315Z,5.83
2019-01-08T13:52:23.293Z,7.73
2019-01-08T13:56:30.218Z,6.80
2019-01-08T14:00:34.059Z,5.17
2019-01-08T14:04:38.003Z,4.97
2019-01-08T14:08:41.923Z,5.90
2019-01-08T14:12:45.862Z,5.87
2019-01-08T14:16:49.662Z,9.60
2019-01-08T14:20:53.519Z,10.57
2019-01-08T14:24:57.552Z,11.90
2019-01-08T14:29:01.394Z,11.47
2019-01-08T14:33:06.426Z,7.13
2019-01-08T14:37:10.514Z,7.27
2019-01-08T14:41:14.329Z,6.90
2019-01-08T14:45:18.444Z,12.07
2019-01-08T14:49:22.464Z,4.57
2019-01-08T14:53:26.396Z,7.50
2019-01-08T14:57:30.441Z,8.47
2019-01-08T15:01:34.397Z,17.43
2019-01-08T15:05:39.234Z,6.23
2019-01-08T15:09:44.372Z,4.27
2019-01-08T15:13:48.200Z,3.87
2019-01-08T15:17:52.174Z,5.27
2019-01-08T15:21:56.029Z,4.70
2019-01-08T15:25:59.858Z,6.43
2019-01-08T15:30:04.951Z,27.93
2019-01-08T15:34:08.984Z,43.07
2019-01-08T15:38:13.286Z,34.03
2019-01-08T15:42:17.103Z,17.37
2019-01-08T15:46:20.930Z,12.17
2019-01-08T15:50:24.896Z,3.60
2019-01-08T15:54:28.813Z,12.53
2019-01-08T15:58:32.918Z,5.17
2019-01-08T16:02:36.846Z,8.40
2019-01-08T16:06:40.843Z,5.23
2019-01-08T16:10:44.772Z,4.43
2019-01-08T16:14:48.587Z,9.43
2019-01-08T16:18:52.518Z,7.40
2019-01-08T16:22:56.572Z,5.17
2019-01-08T16:27:00.450Z,4.17
2019-01-08T16:31:04.504Z,6.73
2019-01-08T16:35:08.322Z,7.53
2019-01-08T16:39:13.339Z,5.93
2019-01-08T16:43:17.231Z,5.07
2019-01-08T16:47:21.151Z,5.33
2019-01-08T16:51:25.093Z,13.83
2019-01-08T16:55:29.048Z,16.87
2019-01-08T16:59:32.871Z,9.97
2019-01-08T17:03:36.888Z,16.13
2019-01-08T17:07:42.630Z,18.03
2019-01-08T17:11:47.705Z,9.53
2019-01-08T17:15:51.546Z,6.07
2019-01-08T17:19:55.425Z,5.73
2019-01-08T17:23:59.321Z,8.73
2019-01-08T17:28:03.258Z,6.23
2019-01-08T17:32:07.261Z,5.40
2019-01-08T17:36:11.278Z,4.10
2019-01-08T17:40:15.108Z,7.47
2019-01-08T17:44:19.149Z,4.50
2019-01-08T17:48:23.181Z,4.17
2019-01-08T17:52:27.174Z,4.60
2019-01-08T17:56:33.192Z,6.47
2019-01-08T18:00:37.141Z,8.50
2019-01-08T18:04:44.670Z,7.30
2019-01-08T18:08:48.645Z,4.53
2019-01-08T18:12:52.681Z,5.17
2019-01-08T18:16:56.459Z,6.00
2019-01-08T18:21:00.452Z,6.03
2019-01-08T18:25:05.019Z,5.70
2019-01-08T18:29:08.829Z,5.90
2019-01-08T18:33:14.139Z,7.07
2019-01-08T18:37:18.177Z,2.90
2019-01-08T18:41:22.247Z,4.93
2019-01-08T18:45:26.263Z,7.77
2019-01-08T18:49:30.359Z,4.60
2019-01-08T18:53:34.260Z,5.03
2019-01-08T18:57:38.299Z,3.20
2019-01-08T19:01:44.145Z,4.93
2019-01-08T19:05:47.970Z,5.27
2019-01-08T19:09:53.754Z,3.43
2019-01-08T19:13:57.700Z,6.77
2019-01-08T19:18:01.572Z,9.30
2019-01-08T19:22:05.492Z,6.47
2019-01-08T19:26:09.340Z,6.53
2019-01-08T19:30:14.185Z,6.87
2019-01-08T19:34:18.436Z,6.07
2019-01-08T19:38:23.281Z,7.20
2019-01-08T19:42:28.365Z,6.03
2019-01-08T19:46:32.181Z,6.27
2019-01-08T19:50:35.959Z,6.63
2019-01-08T19:54:39.817Z,18.50
2019-01-08T19:58:44.289Z,13.17
2019-01-08T20:02:48.139Z,13.53
2019-01-08T20:06:51.957Z,5.80
2019-01-08T20:10:56.018Z,11.97
2019-01-08T20:14:59.836Z,7.87
2019-01-08T20:19:04.778Z,3.13
2019-01-08T20:23:09.802Z,5.60
2019-01-08T20:27:13.955Z,6.67
2019-01-08T20:31:17.892Z,4.50
2019-01-08T20:35:21.804Z,2.97
2019-01-08T20:39:25.745Z,5.07
2019-01-08T20:43:29.902Z,8.67
2019-01-08T20:47:35.003Z,7.53
2019-01-08T20:51:38.917Z,6.00
2019-01-08T20:55:44.263Z,5.97
2019-01-08T20:59:48.235Z,3.40
2019-01-08T21:03:52.156Z,7.43
2019-01-08T21:07:57.089Z,9.47
2019-01-08T21:12:01.070Z,3.83
2019-01-08T21:16:04.985Z,8.47
2019-01-08T21:20:08.905Z,4.93
2019-01-08T21:24:13.899Z,10.53
2019-01-08T21:28:17.844Z,5.83
2019-01-08T21:32:21.672Z,8.60
2019-01-08T21:36:25.465Z,5.83
2019-01-08T21:40:29.304Z,6.93
2019-01-08T21:44:33.745Z,10.77
2019-01-08T21:48:37.655Z,9.47
2019-01-08T21:52:41.809Z,6.30
2019-01-08T21:56:45.735Z,7.40
2019-01-08T22:00:50.660Z,8.27
2019-01-08T22:04:54.666Z,9.17
2019-01-08T22:09:00.451Z,14.40
2019-01-08T22:13:04.490Z,4.83
2019-01-08T22:17:08.495Z,5.97
2019-01-08T22:21:13.887Z,5.00
2019-01-08T22:25:17.685Z,10.30
2019-01-08T22:29:21.596Z,12.70
2019-01-08T22:33:26.212Z,4.40
2019-01-08T22:37:30.145Z,4.93
2019-01-08T22:41:34.077Z,7.27
2019-01-08T22:45:37.977Z,3.50
2019-01-08T22:49:42.014Z,3.47
2019-01-08T22:53:45.896Z,4.70
2019-01-08T22:57:49.714Z,3.97
2019-01-08T23:01:53.681Z,5.20
2019-01-08T23:05:57.679Z,7.57
2019-01-08T23:10:01.578Z,6.70
2019-01-08T23:14:06.388Z,8.00
2019-01-08T23:18:14.165Z,6.97
2019-01-08T23:22:18.190Z,7.10
2019-01-08T23:26:22.266Z,6.23
2019-01-08T23:30:26.152Z,9.17
2019-01-08T23:34:29.948Z,6.13
2019-01-08T23:38:33.998Z,6.93
2019-01-08T23:42:38.035Z,5.37
2019-01-08T23:46:42.595Z,8.03
2019-01-08T23:50:46.393Z,8.20
2019-01-08T23:54:50.382Z,7.57
2019-01-08T23:58:54.250Z,4.33
